Poe, Indiana
Current Conditions -  °F | °C
As of 11:19 AM on Thursday 27 Nov 2014 (Local Time) from KFWA Reporting Station
Light Snow Light Snow  
Wind Chill: -6°   Ceiling: 2400
Heat Index: -1°   Visibility: 6mi
Dew Point: -3°   Wind: 12mph
Humidity: 82%   Direction: 270°W
Pressure: 30.25"   Gusts: NA
Location:  40.9649°N, 85.1332°W
Report Text: KFWA 271619Z 27010KT 6SM -SN FEW012 BKN024 OVC031 M01/M03 A3025 RMK AO2 SNB16 P0000 T10061033
Loading
Personal Weather Stations






























Interactive Weather Map New forecast layout! Learn more

10-Day Weather Forecast

Advertisements
Track Severe Weather on mobile